Time;durP1;ratioP1;P1;durP2;ratioP2;P2;SDS_P1;SDS_P2;PMS_P1;PMS_P2;Temp;Humidity;BMP_temperature;BMP_pressure;BME280_temperature;BME280_humidity;BME280_pressure;Samples;Min_cycle;Max_cycle;Signal;HPM_P1;HPM_P2
2023/01/16 00:01:53;;;;;;;44.92;25.23;;;28.20;92.40;;;;;;5018376;28;20022;-51
2023/01/16 00:04:20;;;;;;;41.13;25.45;;;28.30;92.20;;;;;;5026883;28;20093;-59
2023/01/16 00:06:47;;;;;;;39.67;25.60;;;28.30;92.10;;;;;;5025997;28;20373;-52
2023/01/16 00:09:15;;;;;;;40.22;25.58;;;28.30;91.90;;;;;;5025771;28;20029;-54
2023/01/16 00:11:42;;;;;;;40.13;23.92;;;28.30;91.80;;;;;;5027007;28;20085;-52
2023/01/16 00:14:09;;;;;;;43.63;24.42;;;28.40;91.60;;;;;;5026081;28;20021;-52
2023/01/16 00:16:35;;;;;;;36.58;22.10;;;28.40;91.60;;;;;;5026733;28;20030;-51
2023/01/16 00:19:02;;;;;;;32.20;20.88;;;28.40;91.60;;;;;;5026511;28;20033;-48
2023/01/16 00:21:29;;;;;;;35.25;20.70;;;28.40;91.60;;;;;;5025854;28;20088;-51
2023/01/16 00:23:58;;;;;;;28.67;20.15;;;28.40;91.60;;;;;;5026707;28;20072;-48
2023/01/16 00:26:26;;;;;;;33.10;20.42;;;28.50;91.60;;;;;;5027120;28;20064;-53
2023/01/16 00:28:56;;;;;;;31.58;19.05;;;28.40;91.60;;;;;;5026626;28;20090;-52
2023/01/16 00:31:25;;;;;;;32.90;19.08;;;28.50;91.70;;;;;;5026673;28;20038;-52
2023/01/16 00:33:55;;;;;;;30.65;18.63;;;28.40;91.70;;;;;;5026630;28;20049;-51
2023/01/16 00:36:22;;;;;;;31.10;17.75;;;28.40;91.90;;;;;;5026964;28;20336;-54
2023/01/16 00:38:48;;;;;;;27.48;18.10;;;28.40;91.70;;;;;;5026523;28;20029;-52
2023/01/16 00:41:15;;;;;;;32.80;16.85;;;28.40;91.70;;;;;;5026847;28;20048;-53
2023/01/16 00:43:42;;;;;;;31.33;17.10;;;28.50;91.80;;;;;;5026328;28;20042;-54
2023/01/16 00:46:09;;;;;;;29.85;15.98;;;28.40;91.80;;;;;;5026697;28;20033;-52
2023/01/16 00:48:35;;;;;;;30.73;16.42;;;28.50;91.90;;;;;;5026332;28;20334;-52
2023/01/16 00:51:02;;;;;;;25.42;14.95;;;28.40;91.80;;;;;;5026421;28;20026;-52
2023/01/16 00:53:28;;;;;;;24.85;13.90;;;28.40;91.90;;;;;;5026219;28;20206;-52
2023/01/16 00:55:55;;;;;;;22.13;13.00;;;28.40;92.00;;;;;;5026438;28;20033;-54
2023/01/16 00:58:22;;;;;;;21.83;13.07;;;28.40;91.90;;;;;;5022956;28;20297;-51
2023/01/16 01:00:51;;;;;;;20.20;12.65;;;28.40;92.00;;;;;;5010456;28;20106;-54
2023/01/16 01:03:18;;;;;;;23.88;13.00;;;28.40;92.00;;;;;;5024792;28;20072;-54
2023/01/16 01:05:47;;;;;;;22.25;12.80;;;28.40;92.00;;;;;;5027174;28;20042;-60
2023/01/16 01:08:17;;;;;;;21.27;12.55;;;28.40;92.30;;;;;;5025816;28;20113;-52
2023/01/16 01:10:43;;;;;;;25.30;13.00;;;28.40;92.10;;;;;;5026249;28;20367;-61
2023/01/16 01:13:10;;;;;;;19.50;12.85;;;28.40;92.10;;;;;;5025944;28;20037;-52
2023/01/16 01:15:37;;;;;;;20.52;13.15;;;28.40;92.00;;;;;;5026162;28;20298;-51
2023/01/16 01:18:07;;;;;;;22.80;13.77;;;28.40;92.10;;;;;;5025357;28;20010;-54
2023/01/16 01:20:33;;;;;;;25.33;15.23;;;28.40;92.10;;;;;;5026102;28;20172;-48
2023/01/16 01:23:01;;;;;;;23.52;14.90;;;28.40;92.00;;;;;;5025407;28;20025;-54
2023/01/16 01:25:36;;;;;;;24.55;14.77;;;28.40;92.00;;;;;;5026058;28;20033;-53
2023/01/16 01:28:03;;;;;;;24.10;15.05;;;28.40;92.00;;;;;;5008811;28;20184;-56
2023/01/16 01:30:30;;;;;;;25.15;14.55;;;28.40;92.00;;;;;;5019833;28;20044;-52
2023/01/16 01:32:57;;;;;;;24.83;14.50;;;28.40;92.00;;;;;;5024386;28;20202;-52
2023/01/16 01:35:23;;;;;;;28.23;13.50;;;28.40;92.00;;;;;;5025708;28;20026;-53
2023/01/16 01:37:50;;;;;;;21.55;13.23;;;28.30;92.00;;;;;;5024546;28;20026;-52
2023/01/16 01:40:17;;;;;;;18.95;12.98;;;28.30;92.00;;;;;;5025626;28;20096;-51
2023/01/16 01:42:44;;;;;;;22.23;12.65;;;28.30;92.00;;;;;;5025603;28;20029;-59
2023/01/16 01:45:21;;;;;;;19.52;12.80;;;28.30;92.00;;;;;;5025547;28;20038;-54
2023/01/16 01:47:59;;;;;;;18.60;12.82;;;28.30;92.20;;;;;;5025078;28;20042;-52
2023/01/16 01:50:54;;;;;;;16.23;12.25;;;28.40;92.00;;;;;;5025171;28;20201;-53
2023/01/16 01:53:31;;;;;;;19.88;12.43;;;28.30;91.90;;;;;;5025485;28;20041;-52
2023/01/16 01:56:13;;;;;;;18.00;12.68;;;28.40;91.90;;;;;;5024022;28;20022;-49
2023/01/16 01:58:42;;;;;;;16.70;12.80;;;28.40;91.90;;;;;;5003633;28;20030;-63
2023/01/16 02:01:08;;;;;;;15.88;12.43;;;28.30;91.80;;;;;;5014475;28;20036;-56
2023/01/16 02:03:47;;;;;;;20.52;12.55;;;28.30;91.80;;;;;;5025470;28;20030;-51
2023/01/16 02:06:31;;;;;;;16.02;12.07;;;28.40;91.80;;;;;;5019474;28;20022;-50
2023/01/16 02:08:58;;;;;;;18.05;11.48;;;28.30;91.80;;;;;;5024764;28;20038;-52
2023/01/16 02:11:47;;;;;;;26.52;12.27;;;28.30;91.80;;;;;;5025201;28;20034;-50
2023/01/16 02:14:39;;;;;;;21.75;12.13;;;28.30;91.80;;;;;;5018919;28;20033;-52
2023/01/16 02:20:23;;;;;;;14.95;11.85;;;28.30;91.70;;;;;;5024777;28;20041;-53
2023/01/16 02:23:14;;;;;;;15.45;11.93;;;28.30;91.70;;;;;;5006704;28;20029;-53
2023/01/16 02:26:15;;;;;;;20.42;11.85;;;28.30;91.70;;;;;;5021596;28;20195;-52
2023/01/16 02:29:00;;;;;;;21.58;11.10;;;28.30;91.70;;;;;;5014339;28;20022;-55
2023/01/16 02:31:38;;;;;;;20.30;11.23;;;28.30;91.60;;;;;;5014085;28;20057;-56
2023/01/16 02:34:50;;;;;;;21.52;11.18;;;28.30;91.50;;;;;;5005601;28;20052;-55
2023/01/16 02:37:28;;;;;;;15.40;10.52;;;28.30;91.50;;;;;;4944822;29;20035;-52
2023/01/16 02:40:08;;;;;;;18.67;10.65;;;28.20;91.40;;;;;;5001973;28;20045;-52
2023/01/16 02:43:12;;;;;;;18.10;10.60;;;28.30;91.50;;;;;;5004951;28;20084;-54
2023/01/16 02:46:02;;;;;;;15.38;9.98;;;28.20;91.40;;;;;;5004667;28;20033;-57
2023/01/16 02:48:49;;;;;;;15.57;10.27;;;28.20;91.40;;;;;;5011437;28;20069;-52
2023/01/16 02:51:52;;;;;;;16.17;10.40;;;28.20;91.50;;;;;;5005808;28;20199;-52
2023/01/16 02:54:39;;;;;;;15.82;9.98;;;28.20;91.50;;;;;;5022659;28;20033;-55
2023/01/16 02:57:16;;;;;;;16.48;10.95;;;28.20;91.50;;;;;;5013052;28;20096;-53
2023/01/16 02:59:43;;;;;;;15.13;10.13;;;28.20;91.50;;;;;;5005049;28;20314;-56
2023/01/16 03:02:11;;;;;;;17.38;10.05;;;28.20;91.40;;;;;;5005125;28;20102;-49
2023/01/16 03:04:45;;;;;;;14.65;10.40;;;28.20;91.40;;;;;;5002840;28;20034;-48
2023/01/16 03:07:57;;;;;;;14.68;10.05;;;28.20;91.40;;;;;;5004512;28;20090;-51
2023/01/16 03:10:40;;;;;;;19.30;10.48;;;28.20;91.40;;;;;;5004554;28;20034;-51
2023/01/16 03:13:35;;;;;;;16.10;10.23;;;28.20;91.40;;;;;;5004597;28;20423;-52
2023/01/16 03:16:23;;;;;;;16.05;9.82;;;28.10;91.40;;;;;;5004944;28;20099;-55
2023/01/16 03:19:22;;;;;;;17.08;10.70;;;28.10;91.40;;;;;;5010115;28;20049;-56
2023/01/16 03:22:08;;;;;;;19.45;10.02;;;28.10;91.40;;;;;;5005060;28;20106;-52
2023/01/16 03:25:06;;;;;;;14.75;10.18;;;28.10;91.30;;;;;;5004678;28;20026;-52
2023/01/16 03:31:12;;;;;;;16.75;9.43;;;28.10;91.20;;;;;;4999580;28;20353;-53
2023/01/16 03:33:58;;;;;;;17.08;9.80;;;28.10;91.50;;;;;;5004586;28;20230;-52
2023/01/16 03:36:32;;;;;;;14.90;10.07;;;28.10;91.30;;;;;;5004514;28;20030;-50
2023/01/16 03:39:03;;;;;;;12.82;8.98;;;28.10;91.30;;;;;;5003724;28;20034;-55
2023/01/16 03:41:38;;;;;;;18.65;9.52;;;28.10;91.30;;;;;;5004552;28;20195;-50
2023/01/16 03:44:13;;;;;;;12.95;9.30;;;28.10;91.30;;;;;;5004477;28;20033;-51
2023/01/16 03:46:51;;;;;;;14.93;9.88;;;28.10;91.30;;;;;;4988554;28;20026;-51
2023/01/16 03:52:54;;;;;;;16.55;9.45;;;28.10;91.30;;;;;;4983140;28;20097;-55
2023/01/16 03:55:30;;;;;;;15.43;9.70;;;28.00;91.40;;;;;;5004528;28;20027;-52
2023/01/16 03:58:37;;;;;;;16.55;9.43;;;28.00;91.40;;;;;;5017215;28;20026;-52
2023/01/16 04:01:39;;;;;;;14.82;9.55;;;28.00;91.30;;;;;;4967275;29;20031;-50
2023/01/16 04:04:48;;;;;;;15.68;10.13;;;28.00;91.40;;;;;;5008133;28;20030;-52
2023/01/16 04:07:17;;;;;;;15.80;10.20;;;28.00;91.40;;;;;;5019212;28;20262;-53
2023/01/16 04:10:02;;;;;;;13.82;10.20;;;28.00;91.40;;;;;;5027302;28;20014;-53
2023/01/16 04:12:39;;;;;;;14.23;9.77;;;28.00;91.30;;;;;;5027307;28;20325;-52
2023/01/16 04:15:11;;;;;;;13.75;9.43;;;28.00;91.30;;;;;;5026969;28;20101;-53
2023/01/16 04:17:39;;;;;;;14.15;9.50;;;28.00;91.20;;;;;;5026893;28;20333;-52
2023/01/16 04:23:28;;;;;;;10.88;9.07;;;28.00;91.20;;;;;;5019584;28;20050;-53
2023/01/16 04:25:57;;;;;;;13.45;10.07;;;27.90;91.20;;;;;;5027053;28;20078;-57
2023/01/16 04:28:23;;;;;;;14.35;8.75;;;27.90;91.10;;;;;;5026797;28;20041;-52
2023/01/16 04:30:50;;;;;;;11.23;9.02;;;27.90;91.10;;;;;;5026683;28;20064;-52
2023/01/16 04:33:36;;;;;;;15.32;10.32;;;27.90;91.10;;;;;;5026684;28;20038;-56
2023/01/16 04:36:04;;;;;;;13.52;8.98;;;27.90;91.10;;;;;;5026522;28;20017;-52
2023/01/16 04:38:31;;;;;;;14.85;8.68;;;27.90;91.10;;;;;;5026487;28;20103;-52
2023/01/16 04:40:57;;;;;;;14.48;9.18;;;27.90;91.10;;;;;;5026569;28;20014;-53
2023/01/16 04:43:24;;;;;;;14.68;9.43;;;27.90;91.10;;;;;;5010072;28;20045;-51
2023/01/16 04:45:50;;;;;;;11.43;8.88;;;27.90;91.10;;;;;;5009740;28;20034;-55
2023/01/16 04:48:17;;;;;;;15.77;9.00;;;27.90;91.10;;;;;;5006660;28;20334;-49
2023/01/16 04:50:47;;;;;;;13.95;8.60;;;27.90;91.10;;;;;;5006735;28;20034;-49
2023/01/16 04:53:13;;;;;;;12.48;8.90;;;27.90;91.10;;;;;;5006939;28;20198;-54
2023/01/16 04:55:43;;;;;;;15.15;8.52;;;27.90;91.00;;;;;;5007165;28;20022;-53
2023/01/16 04:58:10;;;;;;;14.32;8.95;;;27.90;90.90;;;;;;5006765;28;20038;-51
2023/01/16 05:00:36;;;;;;;14.73;8.63;;;27.90;90.90;;;;;;5010582;28;20089;-51
2023/01/16 05:03:03;;;;;;;11.48;8.80;;;27.90;90.80;;;;;;5026068;28;20041;-52
2023/01/16 05:05:29;;;;;;;16.73;8.60;;;27.90;90.80;;;;;;5025819;28;20026;-53
2023/01/16 05:10:41;;;;;;;15.23;9.35;;;27.90;90.70;;;;;;5026191;28;20057;-51
2023/01/16 05:13:08;;;;;;;12.55;8.43;;;27.90;90.70;;;;;;5025864;28;20288;-54
2023/01/16 05:15:34;;;;;;;14.55;8.73;;;27.90;90.70;;;;;;5025921;28;20077;-52
2023/01/16 05:18:01;;;;;;;11.23;8.45;;;27.90;90.70;;;;;;5025801;28;20064;-52
2023/01/16 05:20:31;;;;;;;14.02;9.02;;;27.90;90.70;;;;;;5026041;28;20037;-54
2023/01/16 05:22:58;;;;;;;16.00;9.48;;;27.90;90.70;;;;;;5026264;28;20044;-53
2023/01/16 05:25:24;;;;;;;12.15;8.52;;;27.90;90.70;;;;;;5026123;28;20265;-52
2023/01/16 05:27:51;;;;;;;15.20;9.27;;;27.90;90.70;;;;;;5025929;28;20034;-51
2023/01/16 05:30:18;;;;;;;11.68;9.00;;;27.90;90.70;;;;;;5025464;28;20022;-53
2023/01/16 05:32:45;;;;;;;14.10;8.82;;;27.80;90.70;;;;;;5025521;28;20021;-51
2023/01/16 05:35:12;;;;;;;14.75;8.65;;;27.80;90.70;;;;;;5025784;28;20030;-51
2023/01/16 05:37:40;;;;;;;12.35;8.45;;;27.90;90.80;;;;;;5025470;28;20026;-50
2023/01/16 05:40:11;;;;;;;11.90;9.18;;;27.80;90.80;;;;;;5019308;28;20133;-52
2023/01/16 05:42:37;;;;;;;15.07;8.57;;;27.80;90.80;;;;;;5006065;28;20288;-51
2023/01/16 05:45:05;;;;;;;15.35;8.65;;;27.80;90.80;;;;;;5006125;28;20046;-50
2023/01/16 05:47:31;;;;;;;13.10;8.65;;;27.80;91.00;;;;;;5005490;28;20049;-48
2023/01/16 05:49:58;;;;;;;12.68;8.77;;;27.80;90.80;;;;;;5006127;28;20034;-52
2023/01/16 05:52:26;;;;;;;14.10;8.35;;;27.80;90.80;;;;;;5005478;28;20030;-52
2023/01/16 05:54:53;;;;;;;13.30;8.32;;;27.80;90.90;;;;;;5005818;28;20034;-52
2023/01/16 05:57:20;;;;;;;12.27;8.60;;;27.80;90.90;;;;;;5005435;28;20061;-55
2023/01/16 05:59:53;;;;;;;12.82;8.63;;;27.80;90.90;;;;;;5005624;28;20041;-51
2023/01/16 06:02:20;;;;;;;13.80;8.27;;;27.80;90.90;;;;;;5005243;28;20022;-53
2023/01/16 06:04:48;;;;;;;13.77;8.57;;;27.80;91.00;;;;;;5005713;28;20118;-52
2023/01/16 06:07:15;;;;;;;13.52;8.75;;;27.80;90.90;;;;;;5005073;28;20018;-51
2023/01/16 06:09:42;;;;;;;18.58;8.73;;;27.80;90.90;;;;;;5005414;28;20018;-55
2023/01/16 06:12:16;;;;;;;12.98;8.50;;;27.80;90.90;;;;;;5005125;28;20030;-51
2023/01/16 06:14:43;;;;;;;12.40;8.18;;;27.70;90.90;;;;;;5005565;28;20057;-51
2023/01/16 06:17:14;;;;;;;13.88;8.10;;;27.80;90.80;;;;;;5004945;28;20060;-52
2023/01/16 06:19:41;;;;;;;10.23;8.50;;;27.80;90.70;;;;;;5004943;28;20078;-51
2023/01/16 06:22:07;;;;;;;15.70;9.00;;;27.70;90.70;;;;;;5004952;28;20026;-55
2023/01/16 06:24:34;;;;;;;13.65;8.88;;;27.80;90.70;;;;;;5005049;28;20149;-52
2023/01/16 06:27:01;;;;;;;13.52;8.25;;;27.70;90.70;;;;;;5004924;28;20018;-52
2023/01/16 06:29:27;;;;;;;14.65;8.80;;;27.70;90.70;;;;;;5005085;28;20034;-51
2023/01/16 06:31:57;;;;;;;12.13;8.20;;;27.70;90.70;;;;;;5004665;28;20022;-55
2023/01/16 06:34:23;;;;;;;13.27;8.48;;;27.70;90.70;;;;;;5005003;28;20417;-52
2023/01/16 06:36:50;;;;;;;14.43;8.50;;;27.70;90.70;;;;;;5005047;28;20034;-52
2023/01/16 06:39:17;;;;;;;13.32;8.88;;;27.70;90.70;;;;;;5004565;28;20036;-51
2023/01/16 06:41:43;;;;;;;13.40;8.43;;;27.60;90.70;;;;;;5004734;28;20038;-50
2023/01/16 06:44:10;;;;;;;13.07;8.57;;;27.60;90.70;;;;;;5004772;28;20027;-52
2023/01/16 06:46:37;;;;;;;12.18;8.25;;;27.60;90.70;;;;;;5004349;28;20022;-50
2023/01/16 06:49:03;;;;;;;11.43;8.27;;;27.60;90.70;;;;;;5004711;28;20039;-50
2023/01/16 06:51:30;;;;;;;14.63;8.23;;;27.60;90.70;;;;;;5004545;28;20077;-50
2023/01/16 06:53:56;;;;;;;12.23;8.60;;;27.50;90.70;;;;;;5004511;28;20105;-57
2023/01/16 06:56:24;;;;;;;13.50;8.98;;;27.60;90.70;;;;;;5004442;28;20061;-52
2023/01/16 06:58:50;;;;;;;12.98;8.50;;;27.60;90.70;;;;;;5004593;28;20058;-51
2023/01/16 07:01:17;;;;;;;15.15;8.40;;;27.60;90.70;;;;;;5004286;28;20104;-52
2023/01/16 07:03:44;;;;;;;13.75;8.70;;;27.50;90.60;;;;;;5004496;28;20073;-53
2023/01/16 07:06:12;;;;;;;12.75;8.07;;;27.50;90.60;;;;;;5004345;28;20056;-52
2023/01/16 07:08:39;;;;;;;15.40;8.77;;;27.50;90.60;;;;;;5009764;28;20028;-54
2023/01/16 07:11:06;;;;;;;14.48;8.40;;;27.50;90.60;;;;;;5009702;28;20022;-53
2023/01/16 07:13:32;;;;;;;15.10;8.57;;;27.50;90.60;;;;;;5004301;28;20035;-51
2023/01/16 07:24:21;;;;;;;17.17;8.40;;;27.50;90.60;;;;;;5004426;28;20149;-50
2023/01/16 07:26:52;;;;;;;13.90;8.15;;;27.40;90.60;;;;;;5004228;28;20318;-52
2023/01/16 07:29:19;;;;;;;13.93;8.40;;;27.50;90.60;;;;;;5012601;28;20034;-55
2023/01/16 07:31:46;;;;;;;15.27;9.15;;;27.50;90.60;;;;;;5026525;28;20022;-59
2023/01/16 07:34:12;;;;;;;10.43;8.10;;;27.50;90.50;;;;;;5028023;28;20036;-52
2023/01/16 07:36:39;;;;;;;15.95;8.88;;;27.50;90.50;;;;;;5027620;28;20073;-52
2023/01/16 07:39:05;;;;;;;13.32;8.73;;;27.50;90.60;;;;;;5027758;28;20129;-55
2023/01/16 07:41:32;;;;;;;12.98;8.68;;;27.40;90.60;;;;;;5027654;28;20057;-51
2023/01/16 07:43:59;;;;;;;12.80;7.97;;;27.50;90.60;;;;;;5027504;28;20049;-51
2023/01/16 07:46:25;;;;;;;14.00;8.45;;;27.50;90.60;;;;;;5027573;28;20025;-51
2023/01/16 07:48:53;;;;;;;11.40;8.27;;;27.40;90.60;;;;;;5027342;28;20061;-54
2023/01/16 07:51:19;;;;;;;15.38;8.68;;;27.50;90.60;;;;;;5027323;28;20018;-53
2023/01/16 07:53:46;;;;;;;14.32;8.30;;;27.50;90.70;;;;;;5027425;28;20245;-54
2023/01/16 07:56:13;;;;;;;13.32;8.40;;;27.50;90.70;;;;;;5027444;28;20097;-56
2023/01/16 07:58:41;;;;;;;15.00;8.20;;;27.50;90.70;;;;;;5027366;28;20026;-51
2023/01/16 08:01:08;;;;;;;15.05;8.77;;;27.50;90.70;;;;;;5027484;28;20044;-52
2023/01/16 08:03:34;;;;;;;13.15;9.00;;;27.50;90.70;;;;;;5017372;28;20037;-52
2023/01/16 08:06:02;;;;;;;11.85;8.07;;;27.40;90.80;;;;;;5007426;28;20030;-52
2023/01/16 08:08:29;;;;;;;12.25;7.85;;;27.50;90.80;;;;;;5007451;28;20033;-53
2023/01/16 08:10:58;;;;;;;12.73;8.52;;;27.40;90.70;;;;;;5007362;28;20365;-52
2023/01/16 08:13:26;;;;;;;15.40;8.68;;;27.40;90.70;;;;;;5007423;28;20081;-50
2023/01/16 08:15:52;;;;;;;14.38;8.90;;;27.40;90.70;;;;;;5007628;28;20022;-51
2023/01/16 08:18:19;;;;;;;15.20;7.90;;;27.40;90.70;;;;;;5007167;28;20037;-52
2023/01/16 08:20:47;;;;;;;14.73;8.70;;;27.40;90.70;;;;;;5007285;28;20045;-51
2023/01/16 08:23:13;;;;;;;13.25;8.73;;;27.40;90.80;;;;;;5007147;28;20026;-52
2023/01/16 08:25:40;;;;;;;13.88;8.82;;;27.40;90.80;;;;;;5006952;28;20298;-51
2023/01/16 08:28:06;;;;;;;11.20;8.38;;;27.40;90.70;;;;;;5018369;28;20014;-51
2023/01/16 08:30:33;;;;;;;14.80;9.07;;;27.40;90.70;;;;;;5007099;28;20322;-52
2023/01/16 08:33:01;;;;;;;14.45;9.60;;;27.40;90.70;;;;;;5011006;28;20191;-54
2023/01/16 08:35:28;;;;;;;14.05;8.93;;;27.40;90.80;;;;;;5014568;28;20046;-53
2023/01/16 08:37:55;;;;;;;12.45;8.07;;;27.40;90.80;;;;;;5006905;28;20025;-51
2023/01/16 08:40:22;;;;;;;11.38;7.80;;;27.40;90.80;;;;;;5006746;28;20041;-53
2023/01/16 08:51:25;;;;;;;16.75;8.60;;;27.40;90.90;;;;;;5026345;28;20121;-47
2023/01/16 08:53:54;;;;;;;11.00;8.45;;;27.40;90.90;;;;;;5026174;28;20214;-52
2023/01/16 08:56:22;;;;;;;11.27;8.23;;;27.40;90.90;;;;;;5026247;28;20068;-54
2023/01/16 08:58:48;;;;;;;12.82;8.65;;;27.30;90.90;;;;;;5026325;28;20285;-53
2023/01/16 09:01:15;;;;;;;17.38;8.65;;;27.40;91.00;;;;;;5021517;28;20021;-51
2023/01/16 09:03:42;;;;;;;12.75;8.20;;;27.30;90.90;;;;;;5026082;28;20029;-52
2023/01/16 09:06:09;;;;;;;14.43;8.68;;;27.30;91.20;;;;;;5026038;28;20037;-53
2023/01/16 09:08:35;;;;;;;12.27;8.35;;;27.30;91.00;;;;;;5025881;28;20100;-52
2023/01/16 09:13:50;;;;;;;13.82;8.48;;;27.30;91.00;;;;;;5026047;28;20025;-52
2023/01/16 09:16:18;;;;;;;10.57;8.55;;;27.30;91.10;;;;;;5025794;28;20418;-53
2023/01/16 09:18:45;;;;;;;13.93;8.77;;;27.30;91.10;;;;;;5026067;28;20101;-52
2023/01/16 09:21:11;;;;;;;12.90;8.77;;;27.30;91.10;;;;;;5025710;28;20028;-49
2023/01/16 09:23:38;;;;;;;14.80;9.38;;;27.30;91.20;;;;;;5026069;28;20041;-52
2023/01/16 09:26:05;;;;;;;15.40;8.93;;;27.30;91.20;;;;;;5025625;28;20314;-54
2023/01/16 09:28:32;;;;;;;16.25;9.18;;;27.30;91.20;;;;;;5025674;28;20261;-55
2023/01/16 09:30:58;;;;;;;14.45;9.07;;;27.30;91.30;;;;;;5025391;28;20021;-52
2023/01/16 09:33:25;;;;;;;14.77;9.18;;;27.30;91.30;;;;;;5025577;28;20093;-52
2023/01/16 09:35:51;;;;;;;13.98;8.75;;;27.20;91.20;;;;;;5025445;28;20267;-52
2023/01/16 09:38:18;;;;;;;14.98;8.68;;;27.20;91.20;;;;;;5025306;28;20056;-54
2023/01/16 09:40:53;;;;;;;11.40;8.75;;;27.20;91.20;;;;;;5025318;28;20029;-51
2023/01/16 09:43:40;;;;;;;14.68;9.20;;;27.20;91.20;;;;;;5025198;28;20018;-51
2023/01/16 09:46:26;;;;;;;13.98;9.18;;;27.20;91.20;;;;;;5025256;28;20026;-53
2023/01/16 09:49:01;;;;;;;12.88;9.00;;;27.20;91.30;;;;;;5025219;28;20058;-52
2023/01/16 09:58:34;;;;;;;10.95;8.50;;;27.20;91.30;;;;;;5025166;28;20017;-52
2023/01/16 10:00:06;;;;;;;12.20;9.48;;;27.10;91.40;;;;;;5020762;28;20349;-52
2023/01/16 10:02:34;;;;;;;14.45;9.10;;;27.10;91.40;;;;;;5005240;28;20038;-52
2023/01/16 10:05:05;;;;;;;14.52;8.95;;;27.10;91.40;;;;;;5010369;28;20030;-58
2023/01/16 10:07:47;;;;;;;11.93;9.20;;;27.20;91.40;;;;;;5010893;28;20121;-55
2023/01/16 10:10:29;;;;;;;13.88;9.25;;;27.10;91.30;;;;;;5008727;28;20029;-52
2023/01/16 10:13:12;;;;;;;13.73;9.35;;;27.10;91.30;;;;;;5024928;28;20065;-52
2023/01/16 10:16:12;;;;;;;13.25;8.95;;;27.10;91.30;;;;;;5014870;28;20056;-50
2023/01/16 10:18:50;;;;;;;15.73;9.35;;;27.10;91.30;;;;;;5007754;28;20093;-54
2023/01/16 10:21:51;;;;;;;13.30;8.88;;;27.10;91.30;;;;;;5004821;28;20022;-52
2023/01/16 10:24:34;;;;;;;13.82;9.20;;;27.10;91.30;;;;;;5005051;28;20098;-51
2023/01/16 10:27:28;;;;;;;15.73;9.20;;;27.10;91.30;;;;;;5019011;28;20064;-52
2023/01/16 10:30:18;;;;;;;15.77;8.38;;;27.10;91.30;;;;;;5024337;28;20037;-48
2023/01/16 10:32:48;;;;;;;16.27;9.52;;;27.10;91.30;;;;;;5024008;28;20245;-52
2023/01/16 10:35:33;;;;;;;18.83;9.07;;;27.00;91.30;;;;;;5024720;28;20045;-54
2023/01/16 10:38:43;;;;;;;13.65;8.85;;;27.00;91.30;;;;;;5020489;28;20415;-54
2023/01/16 10:50:00;;;;;;;17.25;9.18;;;27.00;91.20;;;;;;5024666;28;20021;-52
2023/01/16 10:52:27;;;;;;;16.27;9.35;;;27.00;91.20;;;;;;5012593;28;20038;-52
2023/01/16 10:54:59;;;;;;;17.25;9.20;;;27.00;91.20;;;;;;5004715;28;20034;-51
2023/01/16 10:57:26;;;;;;;15.83;9.60;;;27.00;91.30;;;;;;5004449;28;20049;-52
2023/01/16 11:00:09;;;;;;;15.77;9.25;;;27.00;91.20;;;;;;5007013;28;20592;-54
2023/01/16 11:02:43;;;;;;;12.93;9.55;;;26.90;91.20;;;;;;5021709;28;20030;-53
2023/01/16 11:05:34;;;;;;;19.70;9.88;;;26.90;91.20;;;;;;5004748;28;20236;-55
2023/01/16 11:08:15;;;;;;;16.17;9.18;;;26.90;91.30;;;;;;5011397;28;20384;-51
2023/01/16 11:19:21;;;;;;;19.58;9.57;;;26.90;91.10;;;;;;5022110;28;20241;-51
2023/01/16 11:22:03;;;;;;;18.98;9.43;;;26.90;91.10;;;;;;5024324;28;20306;-59
2023/01/16 11:24:34;;;;;;;15.80;9.13;;;26.90;91.00;;;;;;5023703;28;20076;-52
2023/01/16 11:27:14;;;;;;;11.90;8.50;;;26.90;90.90;;;;;;5023999;28;20287;-57
2023/01/16 11:29:49;;;;;;;24.38;9.38;;;26.90;90.90;;;;;;5022162;28;20029;-52
2023/01/16 11:32:17;;;;;;;20.10;8.95;;;26.90;90.90;;;;;;5024217;28;20022;-55
2023/01/16 11:34:53;;;;;;;16.30;9.20;;;26.90;90.80;;;;;;5024099;28;20099;-55
2023/01/16 11:37:35;;;;;;;17.33;8.82;;;26.90;90.80;;;;;;5024359;28;20199;-55
2023/01/16 11:40:13;;;;;;;14.23;8.95;;;26.90;90.80;;;;;;5006388;28;20038;-56
2023/01/16 11:46:20;;;;;;;17.92;9.43;;;26.90;90.60;;;;;;5020333;28;20037;-60
2023/01/16 11:48:53;;;;;;;14.60;9.10;;;26.90;90.60;;;;;;5011462;28;20117;-51
2023/01/16 11:51:30;;;;;;;18.42;9.50;;;26.90;90.70;;;;;;5009801;28;20046;-54
2023/01/16 11:53:59;;;;;;;20.38;10.45;;;26.90;90.60;;;;;;5004186;28;20046;-53
2023/01/16 11:56:43;;;;;;;15.27;9.52;;;26.90;90.60;;;;;;5003915;28;20330;-55
2023/01/16 11:59:18;;;;;;;14.70;9.25;;;26.90;90.50;;;;;;5009230;28;20032;-55
2023/01/16 12:02:19;;;;;;;16.67;9.35;;;27.00;90.50;;;;;;5003875;28;20062;-53
2023/01/16 12:08:29;;;;;;;14.30;9.27;;;27.00;90.50;;;;;;5003972;28;20029;-59
2023/01/16 12:11:22;;;;;;;14.00;8.20;;;27.00;90.30;;;;;;5013770;28;20013;-47
2023/01/16 12:14:23;;;;;;;15.55;8.98;;;27.00;90.50;;;;;;5010237;28;20036;-50
2023/01/16 12:17:27;;;;;;;13.30;8.45;;;27.00;90.20;;;;;;5021168;28;20084;-60
2023/01/16 12:20:39;;;;;;;16.55;8.60;;;27.00;90.00;;;;;;5026790;28;20030;-56
2023/01/16 12:23:40;;;;;;;16.00;8.85;;;27.10;90.00;;;;;;5014625;28;20031;-52
2023/01/16 12:26:16;;;;;;;12.60;8.40;;;27.10;89.70;;;;;;5007482;28;20050;-54
2023/01/16 12:29:24;;;;;;;13.43;7.82;;;27.10;89.50;;;;;;5006922;28;20038;-52
2023/01/16 12:32:14;;;;;;;11.90;8.32;;;27.10;89.30;;;;;;4989628;28;20077;-60
2023/01/16 12:34:59;;;;;;;10.88;8.48;;;27.20;89.30;;;;;;4989976;28;20045;-59
2023/01/16 12:37:46;;;;;;;12.65;7.88;;;27.20;89.20;;;;;;4973778;28;20026;-52
2023/01/16 12:40:43;;;;;;;8.25;6.93;;;27.20;89.10;;;;;;4977189;28;20030;-54
2023/01/16 12:43:58;;;;;;;12.38;7.63;;;27.30;88.90;;;;;;5006751;28;20022;-62
2023/01/16 12:46:17;;;;;;;9.93;7.43;;;27.30;88.60;;;;;;5009118;28;20116;-52
2023/01/16 12:52:32;;;;;;;10.18;7.30;;;27.40;88.30;;;;;;5009300;28;20045;-56
2023/01/16 12:55:07;;;;;;;12.32;7.10;;;27.40;88.50;;;;;;5025256;28;20014;-59
2023/01/16 12:57:36;;;;;;;8.07;7.00;;;27.50;88.90;;;;;;5026271;28;20230;-54
2023/01/16 13:00:22;;;;;;;10.13;6.60;;;27.50;88.50;;;;;;5007178;28;20024;-51
2023/01/16 13:03:01;;;;;;;9.35;6.97;;;27.50;88.50;;;;;;5015264;28;20030;-55
2023/01/16 13:05:32;;;;;;;11.30;7.25;;;27.50;88.60;;;;;;5008019;28;20026;-55
2023/01/16 13:08:12;;;;;;;10.98;7.45;;;27.60;88.70;;;;;;5016455;28;20250;-57
2023/01/16 13:13:36;;;;;;;11.07;6.97;;;27.60;88.90;;;;;;5006706;28;20080;-54
2023/01/16 13:16:10;;;;;;;9.70;7.60;;;27.70;88.40;;;;;;5008542;28;20022;-48
2023/01/16 13:18:37;;;;;;;9.25;7.55;;;27.70;88.20;;;;;;5024657;28;20097;-55
2023/01/16 13:21:19;;;;;;;9.93;7.22;;;27.60;88.80;;;;;;5026012;28;20366;-55
2023/01/16 13:24:04;;;;;;;11.00;7.30;;;27.60;88.20;;;;;;5026146;28;20029;-49
2023/01/16 13:26:32;;;;;;;13.05;7.15;;;27.60;88.20;;;;;;5014947;28;20076;-53
2023/01/16 13:29:13;;;;;;;11.77;7.45;;;27.70;88.00;;;;;;5011385;28;20037;-52
2023/01/16 13:31:57;;;;;;;9.05;6.95;;;27.70;88.10;;;;;;5015318;28;20024;-55
2023/01/16 13:34:38;;;;;;;11.50;7.10;;;27.70;88.10;;;;;;5013546;28;20234;-52
2023/01/16 13:37:33;;;;;;;11.98;7.78;;;27.70;87.90;;;;;;5025792;28;20060;-54
2023/01/16 13:40:23;;;;;;;8.85;7.35;;;27.70;88.10;;;;;;5026913;28;20353;-49
2023/01/16 13:45:50;;;;;;;10.05;7.30;;;27.70;88.10;;;;;;5026415;28;20341;-56
2023/01/16 13:48:50;;;;;;;10.40;8.43;;;27.70;88.30;;;;;;5025387;28;20338;-52
2023/01/16 13:51:19;;;;;;;10.43;7.18;;;27.70;88.70;;;;;;5023556;28;20038;-57
2023/01/16 13:53:51;;;;;;;9.32;7.15;;;27.80;88.90;;;;;;5024274;28;20026;-50
2023/01/16 13:56:23;;;;;;;13.00;7.32;;;27.80;89.00;;;;;;5013594;28;20022;-50
2023/01/16 13:59:08;;;;;;;9.57;7.22;;;27.80;89.20;;;;;;5024689;28;20025;-52
2023/01/16 14:01:43;;;;;;;11.55;7.68;;;27.80;89.00;;;;;;5022484;28;20306;-56
2023/01/16 14:04:28;;;;;;;9.48;7.57;;;27.90;89.20;;;;;;5023525;28;20034;-54
2023/01/16 14:10:16;;;;;;;8.15;7.25;;;27.90;89.50;;;;;;5025337;28;20024;-54
2023/01/16 14:13:12;;;;;;;11.00;8.23;;;27.90;89.50;;;;;;5024838;28;20026;-53
2023/01/16 14:18:48;;;;;;;11.82;8.75;;;28.00;89.60;;;;;;5025217;28;20085;-54
2023/01/16 14:24:54;;;;;;;14.80;8.77;;;28.10;89.70;;;;;;5025208;28;20270;-55
2023/01/16 14:27:34;;;;;;;9.43;7.97;;;28.10;89.80;;;;;;5002928;28;20112;-52
2023/01/16 14:30:03;;;;;;;12.02;8.57;;;28.10;90.00;;;;;;5022342;28;20041;-51
2023/01/16 14:32:35;;;;;;;11.25;8.60;;;28.10;90.10;;;;;;5023925;28;20033;-55
2023/01/16 14:35:26;;;;;;;14.93;8.52;;;28.10;90.10;;;;;;5024281;28;20226;-52
2023/01/16 14:38:16;;;;;;;11.43;8.07;;;28.10;90.10;;;;;;5024548;28;20100;-52